createdAt,value
2022-10-12T00:02:02.471Z,3.78
2022-10-12T00:07:04.191Z,3.74
2022-10-12T00:12:06.013Z,3.71
2022-10-12T00:17:07.706Z,3.67
2022-10-12T00:22:09.436Z,3.61
2022-10-12T00:27:11.579Z,3.57
2022-10-12T00:32:13.251Z,3.53
2022-10-12T00:37:14.969Z,3.49
2022-10-12T00:42:20.624Z,3.46
2022-10-12T00:47:37.927Z,3.43
2022-10-12T00:52:49.987Z,3.43
2022-10-12T00:57:55.294Z,3.43
2022-10-12T01:02:58.180Z,3.47
2022-10-12T01:08:00.890Z,3.48
2022-10-12T01:13:03.649Z,3.46
2022-10-12T01:18:27.640Z,3.44
2022-10-12T01:23:38.572Z,3.43
2022-10-12T01:29:19.174Z,3.40
2022-10-12T01:34:33.288Z,3.34
2022-10-12T01:39:43.654Z,3.29
2022-10-12T01:44:45.329Z,3.25
2022-10-12T01:49:46.999Z,3.22
2022-10-12T01:55:02.929Z,3.17
2022-10-12T02:00:16.867Z,3.13
2022-10-12T02:05:45.874Z,3.09
2022-10-12T02:11:02.839Z,3.04
2022-10-12T02:16:10.463Z,3.02
2022-10-12T02:21:16.336Z,3.04
2022-10-12T02:26:19.716Z,3.04
2022-10-12T02:31:46.408Z,3.08
2022-10-12T02:37:07.347Z,3.11
2022-10-12T02:42:15.486Z,3.19
2022-10-12T02:47:19.107Z,3.23
2022-10-12T02:52:21.332Z,3.24
2022-10-12T02:57:23.163Z,3.21
2022-10-12T03:02:24.887Z,3.19
2022-10-12T03:07:26.665Z,3.16
2022-10-12T03:12:28.285Z,3.13
2022-10-12T03:17:30.081Z,3.10
2022-10-12T03:22:31.766Z,3.07
2022-10-12T03:27:33.409Z,3.04
2022-10-12T03:32:35.073Z,3.00
2022-10-12T03:37:37.142Z,2.98
2022-10-12T03:42:39.134Z,2.96
2022-10-12T03:47:41.132Z,2.93
2022-10-12T03:52:43.205Z,2.89
2022-10-12T03:57:45.896Z,2.85
2022-10-12T04:02:47.637Z,2.80
2022-10-12T04:07:49.863Z,2.74
2022-10-12T04:12:51.764Z,2.69
2022-10-12T04:17:53.466Z,2.65
2022-10-12T04:22:55.180Z,2.61
2022-10-12T04:27:56.867Z,2.58
2022-10-12T04:32:58.579Z,2.53
2022-10-12T04:38:00.279Z,2.47
2022-10-12T04:43:02.076Z,2.41
2022-10-12T04:48:03.970Z,2.33
2022-10-12T04:53:05.651Z,2.22
2022-10-12T04:58:07.352Z,2.08
2022-10-12T05:03:09.072Z,2.01
2022-10-12T05:08:10.719Z,2.01
2022-10-12T05:13:12.984Z,2.01
2022-10-12T05:18:14.690Z,1.99
2022-10-12T05:23:16.394Z,2.04
2022-10-12T05:28:18.109Z,2.11
2022-10-12T05:33:19.925Z,2.21
2022-10-12T05:38:21.752Z,2.31
2022-10-12T05:43:23.470Z,2.41
2022-10-12T05:48:25.144Z,2.50
2022-10-12T05:53:27.440Z,2.61
2022-10-12T05:58:30.612Z,2.70
2022-10-12T06:03:35.025Z,2.78
2022-10-12T06:08:37.324Z,2.85
2022-10-12T06:13:39.435Z,2.94
2022-10-12T06:18:41.212Z,3.07
2022-10-12T06:23:42.940Z,3.19
2022-10-12T06:28:44.744Z,3.29
2022-10-12T06:33:46.472Z,3.37
2022-10-12T06:38:48.196Z,3.49
2022-10-12T06:43:49.945Z,3.67
2022-10-12T06:48:51.643Z,3.88
2022-10-12T06:53:56.631Z,4.12
2022-10-12T06:58:58.429Z,4.27
2022-10-12T07:04:01.022Z,4.36
2022-10-12T07:09:02.905Z,4.50
2022-10-12T07:14:04.572Z,4.68
2022-10-12T07:19:06.541Z,4.88
2022-10-12T07:24:12.326Z,5.10
2022-10-12T07:29:13.971Z,5.33
2022-10-12T07:34:15.656Z,5.53
2022-10-12T07:39:17.535Z,5.75
2022-10-12T07:44:21.028Z,6.02
2022-10-12T07:49:22.958Z,6.32
2022-10-12T07:54:29.160Z,6.60
2022-10-12T07:59:31.251Z,6.84
2022-10-12T08:04:32.963Z,7.09
2022-10-12T08:09:36.232Z,7.36
2022-10-12T08:14:38.673Z,7.65
2022-10-12T08:19:40.608Z,7.93
2022-10-12T08:24:42.474Z,8.20
2022-10-12T08:29:44.245Z,8.47
2022-10-12T08:34:45.927Z,8.71
2022-10-12T08:39:47.716Z,8.99
2022-10-12T08:45:08.470Z,9.26
2022-10-12T08:50:18.568Z,9.52
2022-10-12T08:55:46.417Z,9.78
2022-10-12T09:00:57.489Z,10.03
2022-10-12T09:06:22.224Z,10.26
2022-10-12T09:11:33.793Z,10.49
2022-10-12T09:16:41.670Z,10.74
2022-10-12T09:21:46.235Z,10.93
2022-10-12T09:26:52.267Z,11.16
2022-10-12T09:32:20.447Z,11.37
2022-10-12T09:37:26.359Z,11.56
2022-10-12T09:42:28.056Z,11.76
2022-10-12T09:47:33.987Z,11.95
2022-10-12T09:52:35.622Z,12.13
2022-10-12T09:57:41.634Z,12.26
2022-10-12T10:02:51.603Z,12.38
2022-10-12T10:08:12.560Z,12.52
2022-10-12T10:13:15.806Z,12.69
2022-10-12T10:18:20.532Z,12.85
2022-10-12T10:23:28.715Z,13.06
2022-10-12T10:28:33.486Z,13.28
2022-10-12T10:33:37.168Z,13.38
2022-10-12T10:38:56.142Z,13.46
2022-10-12T10:43:57.935Z,13.54
2022-10-12T10:49:21.387Z,13.58
2022-10-12T10:54:22.990Z,13.54
2022-10-12T10:59:40.515Z,13.51
2022-10-12T11:04:45.858Z,13.37
2022-10-12T11:09:54.147Z,13.26
2022-10-12T11:15:04.475Z,13.26
2022-10-12T11:20:37.137Z,13.41
2022-10-12T11:25:54.258Z,13.55
2022-10-12T11:30:56.091Z,13.68
2022-10-12T11:35:58.850Z,13.82
2022-10-12T11:41:34.514Z,13.91
2022-10-12T11:46:47.740Z,14.00
2022-10-12T11:51:52.188Z,14.16
2022-10-12T11:56:58.553Z,14.16
2022-10-12T12:02:19.256Z,14.11
2022-10-12T12:07:49.749Z,14.11
2022-10-12T12:13:11.693Z,13.91
2022-10-12T12:18:44.335Z,13.92
2022-10-12T12:23:54.856Z,13.96
2022-10-12T12:29:27.980Z,13.89
2022-10-12T12:34:29.720Z,13.97
2022-10-12T12:39:34.848Z,14.04
2022-10-12T12:44:44.567Z,14.10
2022-10-12T12:49:57.478Z,14.09
2022-10-12T12:55:14.560Z,14.00
2022-10-12T13:00:23.439Z,14.03
2022-10-12T13:05:39.441Z,14.10
2022-10-12T13:11:10.388Z,14.19
2022-10-12T13:17:29.990Z,14.25
2022-10-12T13:21:56.828Z,14.29
2022-10-12T13:27:04.844Z,14.31
2022-10-12T13:32:22.149Z,14.36
2022-10-12T13:37:31.363Z,14.40
2022-10-12T13:42:35.968Z,14.43
2022-10-12T13:47:42.562Z,14.50
2022-10-12T13:52:53.702Z,14.50
2022-10-12T13:57:55.411Z,14.46
2022-10-12T14:03:02.925Z,14.36
2022-10-12T14:08:16.054Z,14.26
2022-10-12T14:13:28.702Z,14.13
2022-10-12T14:18:45.340Z,13.94
2022-10-12T14:23:49.838Z,13.72
2022-10-12T14:28:52.550Z,13.49
2022-10-12T14:33:54.567Z,13.31
2022-10-12T14:39:13.108Z,13.19
2022-10-12T14:44:15.928Z,13.10
2022-10-12T14:49:21.017Z,13.03
2022-10-12T14:54:22.700Z,12.96
2022-10-12T14:59:24.448Z,12.88
2022-10-12T15:04:26.203Z,12.80
2022-10-12T15:09:27.969Z,12.71
2022-10-12T15:14:29.677Z,12.61
2022-10-12T15:19:31.380Z,12.52
2022-10-12T15:24:33.140Z,12.42
2022-10-12T15:29:34.832Z,12.28
2022-10-12T15:34:36.604Z,12.12
2022-10-12T15:39:38.414Z,11.94
2022-10-12T15:44:41.066Z,11.75
2022-10-12T15:49:42.758Z,11.54
2022-10-12T15:54:48.714Z,11.31
2022-10-12T15:59:52.604Z,11.09
2022-10-12T16:04:54.323Z,10.87
2022-10-12T16:09:56.090Z,10.64
2022-10-12T16:14:57.812Z,10.41
2022-10-12T16:19:59.465Z,10.19
2022-10-12T16:25:03.281Z,9.98
2022-10-12T16:30:07.298Z,9.78
2022-10-12T16:35:10.704Z,9.60
2022-10-12T16:40:13.756Z,9.43
2022-10-12T16:45:15.513Z,9.28
2022-10-12T16:50:21.750Z,9.12
2022-10-12T16:55:23.429Z,8.96
2022-10-12T17:00:25.303Z,8.83
2022-10-12T17:05:26.976Z,8.71
2022-10-12T17:10:28.790Z,8.60
2022-10-12T17:15:30.578Z,8.48
2022-10-12T17:20:32.207Z,8.37
2022-10-12T17:25:33.975Z,8.24
2022-10-12T17:30:38.350Z,8.09
2022-10-12T17:35:41.554Z,7.94
2022-10-12T17:40:43.284Z,7.79
2022-10-12T17:45:45.003Z,7.67
2022-10-12T17:50:46.678Z,7.56
2022-10-12T17:55:49.184Z,7.46
2022-10-12T18:00:51.160Z,7.38
2022-10-12T18:05:53.031Z,7.30
2022-10-12T18:10:54.738Z,7.21
2022-10-12T18:15:57.807Z,7.14
2022-10-12T18:20:59.650Z,7.05
2022-10-12T18:26:03.819Z,6.97
2022-10-12T18:31:06.380Z,6.90
2022-10-12T18:36:08.388Z,6.83
2022-10-12T18:41:13.202Z,6.75
2022-10-12T18:46:18.257Z,6.67
2022-10-12T18:51:32.376Z,6.60
2022-10-12T18:56:36.843Z,6.53
2022-10-12T19:01:38.549Z,6.48
2022-10-12T19:06:45.806Z,6.43
2022-10-12T19:11:47.528Z,6.35
2022-10-12T19:16:50.888Z,6.29
2022-10-12T19:21:53.990Z,6.22
2022-10-12T19:26:55.940Z,6.14
2022-10-12T19:31:57.696Z,6.07
2022-10-12T19:37:00.713Z,6.00
2022-10-12T19:42:02.395Z,5.93
2022-10-12T19:47:04.256Z,5.88
2022-10-12T19:52:05.891Z,5.82
2022-10-12T19:57:07.582Z,5.76
2022-10-12T20:02:10.574Z,5.71
2022-10-12T20:07:12.707Z,5.69
2022-10-12T20:12:14.464Z,5.68
2022-10-12T20:17:16.198Z,5.65
2022-10-12T20:22:18.796Z,5.62
2022-10-12T20:27:20.800Z,5.60
2022-10-12T20:32:22.500Z,5.57
2022-10-12T20:37:24.326Z,5.55
2022-10-12T20:42:26.689Z,5.52
2022-10-12T20:47:28.640Z,5.46
2022-10-12T20:52:30.357Z,5.39
2022-10-12T20:57:32.167Z,5.30
2022-10-12T21:02:33.896Z,5.23
2022-10-12T21:07:36.243Z,5.16
2022-10-12T21:12:38.019Z,5.10
2022-10-12T21:17:45.025Z,5.03
2022-10-12T21:22:46.735Z,4.95
2022-10-12T21:27:48.536Z,4.90
2022-10-12T21:32:50.208Z,4.84
2022-10-12T21:37:52.743Z,4.78
2022-10-12T21:42:54.469Z,4.72
2022-10-12T21:47:56.227Z,4.67
2022-10-12T21:53:02.168Z,4.61
2022-10-12T21:58:03.876Z,4.54
2022-10-12T22:03:05.756Z,4.48
2022-10-12T22:08:08.291Z,4.41
2022-10-12T22:13:10.143Z,4.36
2022-10-12T22:18:12.559Z,4.31
2022-10-12T22:23:14.374Z,4.26
2022-10-12T22:28:16.589Z,4.22
2022-10-12T22:33:18.469Z,4.19
2022-10-12T22:38:20.892Z,4.19
2022-10-12T22:43:22.928Z,4.18
2022-10-12T22:48:25.279Z,4.19
2022-10-12T22:53:29.359Z,4.23
2022-10-12T22:58:31.885Z,4.21
2022-10-12T23:03:34.945Z,4.15
2022-10-12T23:08:40.595Z,4.11
2022-10-12T23:13:48.436Z,4.05
2022-10-12T23:19:01.717Z,4.07
2022-10-12T23:24:06.693Z,4.09
2022-10-12T23:29:08.389Z,4.00
2022-10-12T23:34:15.995Z,3.89
2022-10-12T23:39:19.091Z,3.81
2022-10-12T23:44:20.871Z,3.73
2022-10-12T23:49:22.654Z,3.67
2022-10-12T23:54:26.035Z,3.62
2022-10-12T23:59:27.700Z,3.61
